Time;durP1;ratioP1;P1;durP2;ratioP2;P2;SDS_P1;SDS_P2;PMS_P1;PMS_P2;Temp;Humidity;BMP_temperature;BMP_pressure;BME280_temperature;BME280_humidity;BME280_pressure;Samples;Min_cycle;Max_cycle;Signal;HPM_P1;HPM_P2
2023/04/07 00:16:33;;;;;;;67.30;37.10;;;;;;;0.15;100.00;98967.27;271909;1276;22367;-89
2023/04/07 00:40:14;;;;;;;69.10;38.00;;;;;;;0.17;100.00;98947.12;274077;1267;22331;-90
2023/04/07 01:19:33;;;;;;;63.10;34.40;;;;;;;0.19;100.00;98925.10;270487;1273;22582;-91
2023/04/07 01:42:17;;;;;;;67.60;37.20;;;;;;;0.20;100.00;98928.02;269980;1283;22275;-92
2023/04/07 01:49:08;;;;;;;65.60;35.70;;;;;;;0.22;100.00;98909.23;266122;1292;22400;-92
2023/04/07 02:28:51;;;;;;;66.80;35.70;;;;;;;0.15;100.00;98905.60;265724;1299;22570;-90
2023/04/07 03:15:07;;;;;;;71.00;36.40;;;;;;;0.22;100.00;98897.84;266407;1295;22278;-92
2023/04/07 03:23:28;;;;;;;;;;;;;;;;;;;;;
2023/04/07 03:38:59;;;;;;;65.80;33.30;;;;;;;0.24;100.00;98878.23;264559;1300;22308;-91
2023/04/07 04:17:30;;;;;;;60.50;31.10;;;;;;;0.29;100.00;98898.03;271266;1268;24219;-91
2023/04/07 04:47:32;;;;;;;64.30;32.10;;;;;;;0.30;100.00;98876.43;269800;1272;22557;-89
2023/04/07 04:55:09;;;;;;;57.60;31.40;;;;;;;0.31;100.00;98886.13;272242;1278;23211;-90
2023/04/07 05:02:46;;;;;;;64.80;31.90;;;;;;;0.30;100.00;98904.27;270742;1284;22257;-89
2023/04/07 05:26:01;;;;;;;61.00;29.70;;;;;;;0.40;100.00;98928.08;269688;1275;24279;-88
2023/04/07 05:33:12;;;;;;;62.80;31.70;;;;;;;0.44;100.00;98931.02;272061;1266;22544;-85
2023/04/07 05:40:21;;;;;;;64.80;31.20;;;;;;;0.46;100.00;98924.52;272651;1270;22590;-88
2023/04/07 05:47:33;;;;;;;66.40;32.10;;;;;;;0.49;100.00;98920.67;270258;1272;23870;-87
2023/04/07 06:02:57;;;;;;;65.20;32.90;;;;;;;0.54;100.00;98918.67;272210;1270;22371;-88
2023/04/07 06:11:00;;;;;;;55.70;27.50;;;;;;;0.56;100.00;98913.23;273109;1269;23155;-87
2023/04/07 06:26:08;;;;;;;74.30;32.40;;;;;;;0.60;100.00;98902.49;271507;1269;23212;-88
2023/04/07 06:34:01;;;;;;;60.60;32.30;;;;;;;0.62;100.00;98898.07;270502;1274;22533;-87
2023/04/07 07:13:38;;;;;;;63.00;31.20;;;;;;;0.74;100.00;98908.89;274102;1274;22203;-87
2023/04/07 07:21:25;;;;;;;66.40;32.20;;;;;;;0.78;100.00;98912.32;271858;1266;23604;-89
2023/04/07 07:27:28;;;;;;;60.40;30.90;;;;;;;0.84;100.00;98913.29;273653;1265;22198;-88
2023/04/07 07:35:15;;;;;;;59.70;30.90;;;;;;;0.89;100.00;98918.70;272825;1266;22612;-87
2023/04/07 07:43:05;;;;;;;62.70;30.80;;;;;;;0.90;100.00;98912.36;271126;1272;22219;-87
2023/04/07 07:50:56;;;;;;;;;;;;;;;0.97;100.00;98919.15;269712;1272;23076;-87
2023/04/07 07:58:50;;;;;;;65.40;32.10;;;;;;;1.00;100.00;98921.16;263652;1266;10140155;-88
2023/04/07 08:06:51;;;;;;;69.70;34.40;;;;;;;1.03;100.00;98924.36;268313;1284;24264;-88
2023/04/07 08:14:19;;;;;;;80.80;39.70;;;;;;;1.08;100.00;98916.95;269463;1282;22664;-88
2023/04/07 08:37:11;;;;;;;60.30;29.60;;;;;;;1.18;100.00;98907.59;270150;1270;26624;-90
2023/04/07 08:44:53;;;;;;;61.00;30.50;;;;;;;1.19;100.00;98918.34;269615;1272;25453;-89
2023/04/07 08:52:49;;;;;;;58.60;27.10;;;;;;;1.24;100.00;98930.73;270132;1272;22552;-88
2023/04/07 09:08:47;;;;;;;80.50;36.40;;;;;;;1.31;100.00;98944.17;271503;1275;23050;-89
2023/04/07 09:16:46;;;;;;;64.30;31.90;;;;;;;1.32;100.00;98938.15;271074;1281;22846;-89
2023/04/07 09:24:26;;;;;;;56.00;28.30;;;;;;;1.35;100.00;98926.95;270009;1277;22755;-87
2023/04/07 09:31:56;;;;;;;61.20;31.50;;;;;;;1.36;100.00;98925.97;269843;1280;22609;-87
2023/04/07 09:55:48;;;;;;;53.30;28.70;;;;;;;1.22;100.00;98906.91;268956;1290;22438;-90
2023/04/07 10:03:26;;;;;;;59.30;31.20;;;;;;;1.23;100.00;98908.28;267420;1290;22491;-87
2023/04/07 10:10:53;;;;;;;58.20;30.30;;;;;;;1.31;100.00;98912.11;270876;1283;22259;-88
2023/04/07 10:34:17;;;;;;;52.10;28.40;;;;;;;1.46;100.00;98898.69;271279;1281;22367;-87
2023/04/07 10:42:03;;;;;;;51.30;26.70;;;;;;;1.53;100.00;98908.71;270310;1278;22254;-88
2023/04/07 10:50:02;;;;;;;46.50;25.60;;;;;;;1.64;100.00;98913.28;270529;1287;22306;-85
2023/04/07 10:57:20;;;;;;;44.70;24.20;;;;;;;1.79;100.00;98912.86;270670;1278;22578;-86
2023/04/07 11:04:53;;;;;;;44.80;23.90;;;;;;;2.00;100.00;98896.36;270994;1275;22585;-87
2023/04/07 11:36:46;;;;;;;35.30;19.10;;;;;;;2.43;100.00;98910.17;270018;1267;22524;-87
2023/04/07 11:44:39;;;;;;;33.70;20.10;;;;;;;2.47;100.00;98906.54;270885;1271;22231;-86
2023/04/07 11:51:27;;;;;;;30.40;19.20;;;;;;;2.49;100.00;98910.65;271772;1275;22344;-87
2023/04/07 11:59:16;;;;;;;36.70;21.10;;;;;;;2.53;100.00;98916.77;272036;1272;22481;-87
2023/04/07 12:07:11;;;;;;;31.50;17.70;;;;;;;2.63;100.00;98911.98;272737;1272;22321;-89
2023/04/07 12:15:02;;;;;;;36.80;21.30;;;;;;;2.66;100.00;98901.90;268542;1289;22233;-87
2023/04/07 12:23:01;;;;;;;38.20;22.60;;;;;;;2.69;100.00;98898.33;267962;1292;23503;-87
2023/04/07 12:31:29;;;;;;;37.60;22.30;;;;;;;2.69;100.00;98903.02;265770;1292;22592;-89
2023/04/07 12:38:29;;;;;;;37.50;21.30;;;;;;;2.72;100.00;98905.78;266292;1286;22657;-87
2023/04/07 12:46:17;;;;;;;36.60;21.50;;;;;;;2.71;100.00;98915.27;268587;1284;22789;-88
2023/04/07 12:53:04;;;;;;;37.00;20.20;;;;;;;2.68;100.00;98918.29;270395;1275;22352;-88
2023/04/07 13:00:41;;;;;;;33.90;19.10;;;;;;;2.64;100.00;98921.45;267927;1290;22250;-89
2023/04/07 13:08:48;;;;;;;31.00;18.90;;;;;;;2.62;100.00;98918.42;268149;1284;23795;-89
2023/04/07 13:16:39;;;;;;;33.50;19.60;;;;;;;2.65;100.00;98918.63;269036;1283;22622;-88
2023/04/07 13:24:02;;;;;;;39.20;20.90;;;;;;;2.68;100.00;98923.64;269692;1271;22527;-89
2023/04/07 13:30:50;;;;;;;35.50;20.80;;;;;;;2.67;100.00;98921.73;270776;1275;22390;-89
2023/04/07 13:37:08;;;;;;;36.30;19.20;;;;;;;2.63;100.00;98923.12;271230;1267;22564;-87
2023/04/07 13:43:26;;;;;;;35.50;21.10;;;;;;;2.64;100.00;98925.25;271299;1275;22270;-89
2023/04/07 13:49:37;;;;;;;29.70;17.90;;;;;;;2.64;100.00;98930.02;269943;1275;23190;-88
2023/04/07 13:56:00;;;;;;;37.90;21.80;;;;;;;2.64;100.00;98932.55;270719;1269;22370;-88
2023/04/07 14:02:46;;;;;;;37.10;20.80;;;;;;;2.67;100.00;98929.39;272239;1266;22464;-89
2023/04/07 14:10:16;;;;;;;36.90;20.10;;;;;;;2.67;100.00;98934.64;272178;1266;23515;-88
2023/04/07 14:18:00;;;;;;;36.80;20.40;;;;;;;2.67;100.00;98934.00;273927;1266;25266;-87
2023/04/07 14:24:30;;;;;;;35.50;21.60;;;;;;;2.71;100.00;98938.16;272284;1267;22357;-87
2023/04/07 14:30:58;;;;;;;36.00;21.10;;;;;;;2.74;100.00;98939.93;272673;1266;22331;-87
2023/04/07 14:38:02;;;;;;;40.00;22.30;;;;;;;2.78;100.00;98943.47;272166;1267;23616;-86
2023/04/07 14:44:03;;;;;;;41.20;23.90;;;;;;;2.81;100.00;98946.06;271619;1258;24017;-86
2023/04/07 14:50:49;;;;;;;35.00;20.80;;;;;;;2.83;100.00;98942.23;271141;1266;22188;-88
2023/04/07 14:58:12;;;;;;;38.50;21.00;;;;;;;2.81;100.00;98944.86;272862;1267;22328;-86
2023/04/07 15:04:39;;;;;;;42.30;21.40;;;;;;;2.80;100.00;98946.96;273176;1266;22590;-86
2023/04/07 15:10:58;;;;;;;32.80;21.10;;;;;;;2.77;100.00;98946.25;272281;1256;22580;-87
2023/04/07 15:17:00;;;;;;;39.90;22.40;;;;;;;2.76;100.00;98947.36;272931;1266;24235;-87
2023/04/07 15:23:02;;;;;;;43.00;25.30;;;;;;;2.77;100.00;98944.30;271830;1266;22608;-87
2023/04/07 15:29:29;;;;;;;43.10;25.60;;;;;;;2.79;100.00;98936.49;273815;1266;22434;-88
2023/04/07 15:36:16;;;;;;;45.30;24.50;;;;;;;2.77;100.00;98940.61;272425;1266;22543;-88
2023/04/07 15:43:09;;;;;;;36.90;22.60;;;;;;;2.76;100.00;98941.89;270717;1266;23545;-86
2023/04/07 15:50:00;;;;;;;38.20;22.40;;;;;;;2.76;100.00;98943.64;269670;1266;23093;-88
2023/04/07 16:02:55;;;;;;;41.90;22.60;;;;;;;2.76;100.00;98947.65;271940;1267;23329;-87
2023/04/07 16:09:37;;;;;;;45.10;24.70;;;;;;;2.77;100.00;98944.94;270938;1266;22668;-89
2023/04/07 16:16:57;;;;;;;37.50;22.20;;;;;;;2.79;100.00;98943.69;270706;1267;22663;-87
2023/04/07 16:23:06;;;;;;;36.40;21.00;;;;;;;2.77;100.00;98955.98;270597;1266;22572;-88
2023/04/07 16:29:48;;;;;;;38.20;21.50;;;;;;;2.71;100.00;98967.16;271900;1267;22631;-86
2023/04/07 16:36:16;;;;;;;33.70;20.00;;;;;;;2.69;100.00;98973.64;271231;1267;23256;-88
2023/04/07 16:43:33;;;;;;;29.40;18.20;;;;;;;2.64;100.00;98980.54;271208;1266;22611;-89
2023/04/07 16:49:39;;;;;;;34.40;20.70;;;;;;;2.63;100.00;98992.44;272438;1267;22652;-87
2023/04/07 16:57:18;;;;;;;40.80;22.70;;;;;;;2.61;100.00;98995.98;272382;1266;22970;-87
2023/04/07 17:03:52;;;;;;;36.60;20.50;;;;;;;2.57;100.00;98999.23;272560;1267;22322;-88
2023/04/07 17:09:58;;;;;;;37.00;20.10;;;;;;;2.54;100.00;99006.59;273554;1266;22477;-88
2023/04/07 17:16:07;;;;;;;;;;;;;;;2.52;100.00;99012.53;274021;1267;22360;-88
2023/04/07 17:22:09;;;;;;;38.80;24.20;;;;;;;2.50;100.00;99019.69;272126;1266;22549;-88
2023/04/07 17:28:54;;;;;;;40.90;24.60;;;;;;;2.49;100.00;99022.49;271387;1267;22554;-88
2023/04/07 17:35:17;;;;;;;46.90;26.90;;;;;;;2.48;100.00;99031.20;272171;1260;25426;-88
2023/04/07 17:41:39;;;;;;;44.40;26.50;;;;;;;2.50;100.00;99034.43;271336;1266;22558;-88
2023/04/07 17:48:31;;;;;;;50.40;27.20;;;;;;;2.46;100.00;99045.77;271689;1266;22352;-88
2023/04/07 17:56:16;;;;;;;46.70;23.80;;;;;;;2.45;100.00;99055.05;271269;1266;22894;-90
2023/04/07 18:02:27;;;;;;;49.80;27.30;;;;;;;2.39;100.00;99061.59;272040;1266;22331;-88
2023/04/07 18:08:52;;;;;;;51.40;25.70;;;;;;;2.39;100.00;99063.39;273895;1267;22377;-89
2023/04/07 18:15:14;;;;;;;53.10;30.10;;;;;;;2.34;100.00;99066.46;273873;1267;22382;-90
2023/04/07 18:21:56;;;;;;;49.60;27.50;;;;;;;2.34;100.00;99073.34;271216;1266;22548;-89
2023/04/07 18:28:45;;;;;;;54.00;29.80;;;;;;;2.35;100.00;99086.80;273164;1266;22305;-88
2023/04/07 18:35:12;;;;;;;56.70;30.30;;;;;;;2.29;100.00;99092.45;274213;1266;22404;-87
2023/04/07 18:42:26;;;;;;;62.20;32.60;;;;;;;2.26;100.00;99097.52;271606;1266;22519;-88
2023/04/07 18:48:29;;;;;;;61.70;33.60;;;;;;;2.26;100.00;99099.67;271420;1267;22564;-88
2023/04/07 18:54:55;;;;;;;76.10;38.00;;;;;;;2.31;100.00;99102.29;271361;1266;22542;-88
2023/04/07 19:01:52;;;;;;;73.40;38.90;;;;;;;2.35;100.00;99106.41;264189;1266;10001958;-89
2023/04/07 19:08:04;;;;;;;71.70;37.50;;;;;;;2.34;100.00;99107.44;271488;1270;22548;-88
2023/04/07 19:14:12;;;;;;;62.80;31.90;;;;;;;2.35;100.00;99115.14;271537;1269;22377;-89
2023/04/07 19:21:12;;;;;;;68.50;35.60;;;;;;;2.30;100.00;99120.08;270472;1270;22552;-88
2023/04/07 19:27:42;;;;;;;70.80;36.00;;;;;;;2.28;100.00;99128.09;270821;1269;23841;-87
2023/04/07 19:34:18;;;;;;;81.70;39.30;;;;;;;2.28;100.00;99134.35;270888;1270;22576;-88
2023/04/07 19:49:05;;;;;;;66.60;33.70;;;;;;;2.27;100.00;99146.27;270981;1266;23338;-87
2023/04/07 19:55:37;;;;;;;68.00;35.40;;;;;;;2.26;100.00;99151.69;265099;1266;8551413;-90
2023/04/07 20:02:02;;;;;;;72.40;36.80;;;;;;;2.26;100.00;99153.48;270959;1266;22700;-87
2023/04/07 20:08:54;;;;;;;68.30;36.60;;;;;;;2.26;100.00;99152.42;271074;1266;22570;-87
2023/04/07 20:15:49;;;;;;;75.10;38.50;;;;;;;2.25;100.00;99158.66;270928;1270;22519;-88
2023/04/07 20:21:55;;;;;;;74.70;36.80;;;;;;;2.24;100.00;99160.23;271086;1270;22289;-90
2023/04/07 20:35:55;;;;;;;80.20;41.10;;;;;;;2.24;100.00;99169.80;270929;1270;22566;-88
2023/04/07 20:42:04;;;;;;;78.80;40.30;;;;;;;2.22;100.00;99174.63;270516;1266;22554;-87
2023/04/07 20:49:19;;;;;;;81.30;39.50;;;;;;;2.18;100.00;99177.33;270998;1260;22721;-88
2023/04/07 20:55:50;;;;;;;80.20;40.50;;;;;;;2.15;100.00;99176.95;270629;1269;22576;-88
2023/04/07 21:02:41;;;;;;;74.30;38.40;;;;;;;2.14;100.00;99174.38;271239;1270;22584;-88
2023/04/07 21:09:07;;;;;;;87.60;42.60;;;;;;;2.13;100.00;99177.80;270513;1270;22537;-89
2023/04/07 21:16:25;;;;;;;68.70;36.60;;;;;;;2.13;100.00;99184.79;270449;1265;22557;-86
2023/04/07 21:22:58;;;;;;;77.80;37.90;;;;;;;2.13;100.00;99185.89;272041;1266;22472;-88
2023/04/07 21:29:12;;;;;;;70.80;36.50;;;;;;;2.13;100.00;99186.25;270970;1266;25328;-88
2023/04/07 21:35:54;;;;;;;80.30;41.30;;;;;;;2.10;100.00;99181.89;271783;1266;22557;-86
2023/04/07 21:41:56;;;;;;;81.30;41.60;;;;;;;2.13;100.00;99183.04;270874;1266;22705;-86
2023/04/07 21:48:00;;;;;;;79.50;41.30;;;;;;;2.11;100.00;99181.45;271522;1266;22494;-87
2023/04/07 21:54:33;;;;;;;82.20;40.90;;;;;;;2.11;100.00;99182.23;270204;1266;22586;-85
2023/04/07 22:00:46;;;;;;;83.40;40.30;;;;;;;2.10;100.00;99177.86;271263;1266;22357;-88
2023/04/07 22:07:25;;;;;;;75.60;39.60;;;;;;;2.07;100.00;99179.89;272628;1260;23046;-86
2023/04/07 22:14:13;;;;;;;74.60;36.80;;;;;;;2.06;100.00;99182.84;270535;1259;22368;-87
2023/04/07 22:20:20;;;;;;;73.50;35.90;;;;;;;2.05;100.00;99188.33;269968;1272;22529;-87
2023/04/07 22:26:36;;;;;;;75.20;40.30;;;;;;;2.04;100.00;99184.23;273285;1271;23107;-86
2023/04/07 22:33:03;;;;;;;70.40;36.80;;;;;;;2.03;100.00;99183.79;272569;1272;25361;-86
2023/04/07 22:39:43;;;;;;;70.60;37.40;;;;;;;2.04;100.00;99183.05;272105;1271;22361;-87
2023/04/07 22:45:52;;;;;;;65.40;34.50;;;;;;;2.03;100.00;99183.88;270487;1266;23285;-86
2023/04/07 22:51:54;;;;;;;71.90;36.70;;;;;;;2.01;100.00;99188.04;270623;1267;22612;-87
2023/04/07 22:57:57;;;;;;;72.40;37.60;;;;;;;1.99;100.00;99189.30;270226;1264;22758;-87
2023/04/07 23:04:00;;;;;;;67.60;36.50;;;;;;;1.99;100.00;99194.53;271441;1266;22240;-87
2023/04/07 23:10:25;;;;;;;69.50;37.60;;;;;;;2.01;100.00;99194.01;271908;1266;25038;-86
2023/04/07 23:17:14;;;;;;;66.80;35.80;;;;;;;2.02;100.00;99196.60;270729;1266;23340;-88
2023/04/07 23:23:16;;;;;;;70.90;37.70;;;;;;;2.00;100.00;99190.29;270578;1266;22578;-88
2023/04/07 23:29:18;;;;;;;69.10;39.00;;;;;;;1.97;100.00;99190.22;269936;1266;22609;-87
2023/04/07 23:35:41;;;;;;;72.80;38.90;;;;;;;1.93;100.00;99184.62;270208;1256;22775;-87
2023/04/07 23:41:42;;;;;;;65.50;36.90;;;;;;;1.87;100.00;99183.27;271873;1266;22193;-87
2023/04/07 23:48:26;;;;;;;75.50;39.90;;;;;;;1.84;100.00;99188.97;273635;1266;22340;-87
2023/04/07 23:55:04;;;;;;;66.30;36.30;;;;;;;1.83;100.00;99188.91;272355;1266;22543;-87
